Time;durP1;ratioP1;P1;durP2;ratioP2;P2;SDS_P1;SDS_P2;PMS_P1;PMS_P2;Temp;Humidity;BMP_temperature;BMP_pressure;BME280_temperature;BME280_humidity;BME280_pressure;Samples;Min_cycle;Max_cycle;Signal;HPM_P1;HPM_P2
2021/06/12 00:01:08;;;;;;;8.15;3.15;;;17.50;99.90;;;;;;6158759;23;20093;-71
2021/06/12 00:03:36;;;;;;;6.45;3.50;;;17.40;99.90;;;;;;6184784;23;20426;-71
2021/06/12 00:06:03;;;;;;;5.72;3.30;;;17.40;99.90;;;;;;6184898;23;19997;-71
2021/06/12 00:08:29;;;;;;;7.13;3.15;;;17.40;99.90;;;;;;6184732;23;20067;-71
2021/06/12 00:10:55;;;;;;;4.75;3.55;;;17.40;99.90;;;;;;6184439;23;20001;-71
2021/06/12 00:13:21;;;;;;;5.55;3.60;;;17.40;99.90;;;;;;6184550;23;20001;-71
2021/06/12 00:15:46;;;;;;;9.45;3.78;;;17.40;99.90;;;;;;6184598;23;20016;-71
2021/06/12 00:18:13;;;;;;;6.15;3.45;;;17.30;99.90;;;;;;6158338;23;20009;-71
2021/06/12 00:20:39;;;;;;;4.45;3.05;;;17.30;99.90;;;;;;6184459;23;20013;-71
2021/06/12 00:23:06;;;;;;;7.38;3.35;;;17.20;99.90;;;;;;6184624;23;20330;-71
2021/06/12 00:25:32;;;;;;;4.78;2.95;;;17.20;99.90;;;;;;6184336;23;20001;-71
2021/06/12 00:28:02;;;;;;;4.82;3.45;;;17.10;99.90;;;;;;6184823;23;20009;-71
2021/06/12 00:30:29;;;;;;;5.68;3.22;;;17.10;99.90;;;;;;6184849;23;20011;-71
2021/06/12 00:32:55;;;;;;;5.75;3.25;;;17.10;99.90;;;;;;6184285;23;20496;-71
2021/06/12 00:35:21;;;;;;;5.30;3.60;;;17.10;99.90;;;;;;6184432;23;20001;-71
2021/06/12 00:37:48;;;;;;;6.20;3.60;;;17.10;99.90;;;;;;6184294;23;20493;-71
2021/06/12 00:40:15;;;;;;;4.20;3.15;;;17.10;99.90;;;;;;6184291;23;19997;-71
2021/06/12 00:42:42;;;;;;;7.15;3.47;;;17.10;99.90;;;;;;6184154;23;20120;-71
2021/06/12 00:45:12;;;;;;;7.45;3.40;;;17.10;99.90;;;;;;6184313;23;20009;-71
2021/06/12 00:47:38;;;;;;;;;;;17.10;99.90;;;;;;6185416;23;20067;-71
2021/06/12 00:50:05;;;;;;;16.70;3.55;;;17.10;99.90;;;;;;6184527;23;20252;-71
2021/06/12 00:52:31;;;;;;;7.30;3.53;;;17.10;99.90;;;;;;6184708;23;20497;-71
2021/06/12 00:54:57;;;;;;;9.23;3.80;;;17.10;99.90;;;;;;6184051;23;20024;-71
2021/06/12 00:57:22;;;;;;;6.97;3.30;;;17.10;99.90;;;;;;6184334;23;20008;-71
2021/06/12 00:59:48;;;;;;;5.60;3.35;;;17.10;99.90;;;;;;6184097;23;20001;-71
2021/06/12 01:02:14;;;;;;;9.07;3.85;;;17.00;99.90;;;;;;6184125;23;20012;-71
2021/06/12 01:04:39;;;;;;;9.93;3.70;;;17.00;99.90;;;;;;6184531;23;20005;-71
2021/06/12 01:07:05;;;;;;;6.13;3.33;;;17.00;99.90;;;;;;6184228;23;20079;-71
2021/06/12 01:45:39;;;;;;;5.00;3.60;;;16.60;99.90;;;;;;6171067;23;20017;-70
2021/06/12 01:48:07;;;;;;;5.33;3.87;;;16.50;99.90;;;;;;6184145;23;20005;-70
2021/06/12 01:50:34;;;;;;;5.30;3.08;;;16.40;99.90;;;;;;6183770;23;19998;-70
2021/06/12 01:53:01;;;;;;;4.97;3.00;;;16.40;99.90;;;;;;6184479;23;20421;-70
2021/06/12 01:55:30;;;;;;;7.35;2.75;;;16.50;99.90;;;;;;6183942;23;19997;-71
2021/06/12 01:57:56;;;;;;;5.38;2.78;;;16.50;99.90;;;;;;6157659;23;20009;-70
2021/06/12 02:00:22;;;;;;;4.65;2.25;;;16.50;99.90;;;;;;6157587;23;20031;-71
2021/06/12 02:02:48;;;;;;;5.65;2.63;;;16.50;99.90;;;;;;6183963;23;20008;-70
2021/06/12 02:05:19;;;;;;;4.30;2.70;;;16.60;99.90;;;;;;6184133;23;20078;-70
2021/06/12 02:07:46;;;;;;;3.35;2.50;;;16.60;99.90;;;;;;6183921;23;20310;-71
2021/06/12 02:10:13;;;;;;;4.60;2.80;;;16.60;99.90;;;;;;6184354;23;20316;-71
2021/06/12 02:12:40;;;;;;;6.38;2.80;;;16.60;99.90;;;;;;6183664;23;20029;-71
2021/06/12 02:15:11;;;;;;;4.25;2.95;;;16.60;99.90;;;;;;6157352;23;20048;-71
2021/06/12 02:17:38;;;;;;;3.75;3.30;;;16.50;99.90;;;;;;6157409;23;20080;-70
2021/06/12 02:20:07;;;;;;;7.22;2.88;;;16.60;99.90;;;;;;6183883;23;20012;-71
2021/06/12 02:22:36;;;;;;;3.25;2.85;;;16.60;99.90;;;;;;6185586;23;20005;-71
2021/06/12 02:25:05;;;;;;;6.07;3.25;;;16.60;99.90;;;;;;6185842;23;20326;-71
2021/06/12 02:27:33;;;;;;;4.15;3.05;;;16.60;99.90;;;;;;6185761;23;20016;-71
2021/06/12 02:29:59;;;;;;;3.75;3.00;;;16.60;99.90;;;;;;6185783;23;20047;-71
2021/06/12 02:32:26;;;;;;;3.97;3.00;;;16.60;99.90;;;;;;6185851;23;20001;-71
2021/06/12 02:34:52;;;;;;;4.28;3.13;;;16.60;99.90;;;;;;6185372;23;20005;-71
2021/06/12 02:37:18;;;;;;;5.72;2.92;;;16.60;99.90;;;;;;6185727;23;20444;-71
2021/06/12 02:39:44;;;;;;;3.92;3.05;;;16.60;99.90;;;;;;6185516;23;20131;-71
2021/06/12 02:42:10;;;;;;;4.40;3.38;;;16.60;99.90;;;;;;6185847;23;20009;-71
2021/06/12 02:44:35;;;;;;;4.72;3.67;;;16.60;99.90;;;;;;6185093;23;20017;-70
2021/06/12 02:47:05;;;;;;;5.03;3.70;;;16.60;99.90;;;;;;6185464;23;20036;-71
2021/06/12 02:49:36;;;;;;;4.50;4.10;;;16.60;99.90;;;;;;6185679;23;20051;-71
2021/06/12 02:52:10;;;;;;;6.70;4.60;;;16.60;99.90;;;;;;6186029;23;20001;-71
2021/06/12 02:54:37;;;;;;;6.10;4.03;;;16.60;99.90;;;;;;6185487;23;20072;-71
2021/06/12 02:57:04;;;;;;;5.78;4.07;;;16.60;99.90;;;;;;6185509;23;20341;-71
2021/06/12 02:59:31;;;;;;;10.15;4.38;;;16.60;99.90;;;;;;6185828;23;20004;-71
2021/06/12 03:01:59;;;;;;;5.90;4.13;;;16.60;99.90;;;;;;6185552;23;20091;-71
2021/06/12 03:04:26;;;;;;;6.05;4.30;;;16.60;99.90;;;;;;6185248;23;20001;-71
2021/06/12 03:06:52;;;;;;;7.05;4.80;;;16.70;99.90;;;;;;6185156;23;20325;-70
2021/06/12 03:09:21;;;;;;;7.38;4.22;;;16.70;99.90;;;;;;6185764;23;20005;-71
2021/06/12 03:11:48;;;;;;;7.70;4.13;;;16.70;99.90;;;;;;6184965;23;20005;-71
2021/06/12 03:14:15;;;;;;;5.80;3.85;;;16.70;99.90;;;;;;6185338;23;19997;-71
2021/06/12 03:16:43;;;;;;;4.90;3.80;;;16.70;99.90;;;;;;6185335;23;20337;-71
2021/06/12 03:19:14;;;;;;;7.50;4.07;;;16.70;99.90;;;;;;6185238;23;20001;-71
2021/06/12 03:21:41;;;;;;;8.65;4.38;;;16.70;99.90;;;;;;6185155;23;20318;-71
2021/06/12 03:24:07;;;;;;;5.22;3.88;;;16.70;99.90;;;;;;6185279;23;20001;-70
2021/06/12 03:26:36;;;;;;;4.93;4.22;;;16.70;99.90;;;;;;6185416;23;20043;-70
2021/06/12 03:29:03;;;;;;;5.63;4.10;;;16.70;99.90;;;;;;6185271;23;20365;-71
2021/06/12 03:31:29;;;;;;;4.88;3.83;;;16.70;99.90;;;;;;6185091;23;20016;-71
2021/06/12 03:33:56;;;;;;;6.65;4.00;;;16.60;99.90;;;;;;6184616;23;19997;-71
2021/06/12 03:36:24;;;;;;;5.82;4.28;;;16.60;99.90;;;;;;6185074;23;20417;-71
2021/06/12 03:38:51;;;;;;;6.60;4.20;;;16.70;99.90;;;;;;6185010;23;20003;-71
2021/06/12 03:41:17;;;;;;;6.95;4.28;;;16.70;99.90;;;;;;6185012;23;20013;-71
2021/06/12 03:43:44;;;;;;;5.00;3.75;;;16.70;99.90;;;;;;6184967;23;20028;-71
2021/06/12 03:46:13;;;;;;;4.57;3.88;;;16.60;99.90;;;;;;6184635;23;20027;-71
2021/06/12 03:48:40;;;;;;;5.00;4.03;;;16.60;99.90;;;;;;6184906;23;20076;-71
2021/06/12 03:51:08;;;;;;;9.50;4.35;;;16.70;99.90;;;;;;6185103;23;20419;-71
2021/06/12 03:53:44;;;;;;;5.05;4.20;;;16.70;99.90;;;;;;6185032;23;20001;-71
2021/06/12 03:56:14;;;;;;;6.78;4.18;;;16.70;99.90;;;;;;6184811;23;20005;-71
2021/06/12 03:58:40;;;;;;;;;;;16.60;99.90;;;;;;6185618;23;20005;-71
2021/06/12 04:01:06;;;;;;;6.85;4.20;;;16.60;99.90;;;;;;6184748;23;19915;-71
2021/06/12 04:03:32;;;;;;;6.57;3.88;;;16.60;99.90;;;;;;6184884;23;20001;-71
2021/06/12 04:05:58;;;;;;;5.60;3.90;;;16.60;99.90;;;;;;6184760;23;20081;-71
2021/06/12 04:08:23;;;;;;;6.13;3.38;;;16.50;99.90;;;;;;6184797;23;20381;-71
2021/06/12 04:10:49;;;;;;;6.07;3.95;;;16.50;99.90;;;;;;6184590;23;20005;-71
2021/06/12 04:13:15;;;;;;;4.95;3.65;;;16.50;99.90;;;;;;6184990;23;20361;-71
2021/06/12 04:15:40;;;;;;;5.80;3.10;;;16.50;99.90;;;;;;6184540;23;20429;-71
2021/06/12 04:18:09;;;;;;;4.65;3.53;;;16.40;99.90;;;;;;6185146;23;20366;-71
2021/06/12 04:20:37;;;;;;;5.20;3.38;;;16.40;99.90;;;;;;6184843;23;20012;-71
2021/06/12 04:23:03;;;;;;;3.70;2.97;;;16.40;99.90;;;;;;6184759;23;20422;-71
2021/06/12 04:25:29;;;;;;;4.03;3.03;;;16.40;99.90;;;;;;6184483;23;20047;-71
2021/06/12 04:27:54;;;;;;;3.38;3.08;;;16.40;99.90;;;;;;6184770;23;20011;-71
2021/06/12 04:30:21;;;;;;;5.38;4.18;;;16.40;99.90;;;;;;6184613;23;20000;-71
2021/06/12 04:32:47;;;;;;;6.78;4.50;;;16.40;99.90;;;;;;6184730;23;20005;-71
2021/06/12 04:35:14;;;;;;;6.65;4.15;;;16.30;99.90;;;;;;6184333;23;20076;-71
2021/06/12 04:37:42;;;;;;;5.50;4.43;;;16.30;99.90;;;;;;6184436;23;20012;-71
2021/06/12 04:40:09;;;;;;;9.40;5.50;;;16.30;99.90;;;;;;6184795;23;19997;-71
2021/06/12 04:42:34;;;;;;;10.60;5.07;;;16.30;99.90;;;;;;6184311;23;20495;-71
2021/06/12 04:45:00;;;;;;;12.10;5.10;;;16.20;99.90;;;;;;6183573;23;20013;-71
2021/06/12 04:47:26;;;;;;;12.38;5.75;;;16.20;99.90;;;;;;6184323;23;20005;-71
2021/06/12 04:49:52;;;;;;;13.68;6.20;;;16.20;99.90;;;;;;6184700;23;20029;-71
2021/06/12 04:52:17;;;;;;;8.57;5.85;;;16.20;99.90;;;;;;6184157;23;20111;-71
2021/06/12 04:54:43;;;;;;;14.90;6.57;;;16.30;99.90;;;;;;6184251;23;19997;-71
2021/06/12 04:57:09;;;;;;;11.77;6.68;;;16.30;99.90;;;;;;6184295;23;20085;-71
2021/06/12 04:59:35;;;;;;;13.32;7.10;;;16.30;99.90;;;;;;6184682;23;20327;-71
2021/06/12 05:02:00;;;;;;;9.80;6.45;;;16.30;99.90;;;;;;6184338;23;20013;-71
2021/06/12 05:04:26;;;;;;;10.95;6.30;;;16.30;99.90;;;;;;6184261;23;20005;-71
2021/06/12 05:06:52;;;;;;;9.63;6.60;;;16.30;99.90;;;;;;6184133;23;20028;-71
2021/06/12 05:09:17;;;;;;;7.00;5.97;;;16.30;99.90;;;;;;6184573;23;20001;-71
2021/06/12 05:11:43;;;;;;;10.85;6.85;;;16.30;99.90;;;;;;6184042;23;20005;-71
2021/06/12 05:14:09;;;;;;;8.73;6.18;;;16.30;99.90;;;;;;6184533;23;20005;-71
2021/06/12 05:16:36;;;;;;;11.02;6.20;;;16.20;99.90;;;;;;6184183;23;20326;-71
2021/06/12 05:19:02;;;;;;;13.18;8.10;;;16.30;99.90;;;;;;6184394;23;20028;-71
2021/06/12 05:21:28;;;;;;;10.10;6.85;;;16.20;99.90;;;;;;6183988;23;20009;-71
2021/06/12 05:23:54;;;;;;;15.43;7.75;;;16.30;99.90;;;;;;6183989;23;20008;-71
2021/06/12 05:26:20;;;;;;;13.77;6.95;;;16.20;99.90;;;;;;6184056;23;20005;-71
2021/06/12 05:28:46;;;;;;;12.05;8.35;;;16.20;99.90;;;;;;6157632;23;20008;-71
2021/06/12 05:31:11;;;;;;;13.23;7.85;;;16.20;99.90;;;;;;6184429;23;20005;-71
2021/06/12 05:33:37;;;;;;;14.18;7.75;;;16.20;99.90;;;;;;6184131;23;20051;-71
2021/06/12 05:36:05;;;;;;;14.52;7.28;;;16.20;99.90;;;;;;6183866;23;20080;-71
2021/06/12 05:38:32;;;;;;;13.35;8.10;;;16.30;99.90;;;;;;6184199;23;20001;-71
2021/06/12 05:40:58;;;;;;;17.60;8.10;;;16.30;99.90;;;;;;6183918;23;20429;-71
2021/06/12 05:43:24;;;;;;;13.85;7.22;;;16.30;99.90;;;;;;6184108;23;20088;-70
2021/06/12 05:45:50;;;;;;;9.10;5.93;;;16.30;99.90;;;;;;6183539;23;20023;-70
2021/06/12 05:48:16;;;;;;;10.02;6.20;;;16.30;99.90;;;;;;6184042;23;20009;-71
2021/06/12 05:50:42;;;;;;;11.32;6.68;;;16.20;99.90;;;;;;6184156;23;20008;-70
2021/06/12 05:53:08;;;;;;;9.30;6.30;;;16.20;99.90;;;;;;6184330;23;20425;-70
2021/06/12 05:55:33;;;;;;;9.98;6.38;;;16.20;99.90;;;;;;6184234;23;20469;-71
2021/06/12 05:58:00;;;;;;;10.73;6.38;;;16.20;99.90;;;;;;6159650;23;20337;-71
2021/06/12 06:00:27;;;;;;;7.65;5.60;;;16.20;99.90;;;;;;6185993;23;20451;-71
2021/06/12 06:02:53;;;;;;;8.93;6.13;;;16.20;99.90;;;;;;6186134;23;20016;-71
2021/06/12 06:05:19;;;;;;;12.30;5.85;;;16.30;99.90;;;;;;6185973;23;20057;-70
2021/06/12 06:07:45;;;;;;;10.02;5.65;;;16.30;99.90;;;;;;6185817;23;20259;-71
2021/06/12 06:10:11;;;;;;;6.38;5.35;;;16.30;99.90;;;;;;6186135;23;20024;-71
2021/06/12 06:12:36;;;;;;;5.70;5.03;;;16.30;99.90;;;;;;6185692;23;20013;-71
2021/06/12 06:15:04;;;;;;;7.40;5.47;;;16.20;99.90;;;;;;6185693;23;20001;-71
2021/06/12 06:17:30;;;;;;;13.65;4.60;;;16.20;99.90;;;;;;6185705;23;20001;-71
2021/06/12 06:19:56;;;;;;;6.95;5.05;;;16.20;99.90;;;;;;6159267;23;20001;-71
2021/06/12 06:22:22;;;;;;;6.80;4.75;;;16.20;99.90;;;;;;6185958;23;20017;-71
2021/06/12 06:24:47;;;;;;;5.35;4.53;;;16.20;99.90;;;;;;6159796;23;20001;-71
2021/06/12 06:27:13;;;;;;;7.63;5.18;;;16.20;99.90;;;;;;6185645;23;20005;-71
2021/06/12 06:29:39;;;;;;;5.72;4.82;;;16.20;99.90;;;;;;6185754;23;20025;-71
2021/06/12 06:32:05;;;;;;;5.75;4.75;;;16.20;99.90;;;;;;6185748;23;20005;-71
2021/06/12 06:34:31;;;;;;;6.35;5.10;;;16.10;99.90;;;;;;6185659;23;20001;-71
2021/06/12 06:36:57;;;;;;;8.30;5.10;;;16.10;99.90;;;;;;6185424;23;20008;-71
2021/06/12 06:39:23;;;;;;;6.80;5.22;;;16.10;99.90;;;;;;6185668;23;20031;-71
2021/06/12 06:41:49;;;;;;;8.38;5.70;;;16.10;99.90;;;;;;6185198;23;20067;-71
2021/06/12 06:44:15;;;;;;;10.00;5.82;;;16.10;99.90;;;;;;6185185;23;20314;-71
2021/06/12 06:46:41;;;;;;;8.27;5.85;;;16.10;99.90;;;;;;6185842;23;20001;-71
2021/06/12 06:49:07;;;;;;;7.03;5.47;;;16.10;99.90;;;;;;6185285;23;20012;-71
2021/06/12 06:51:32;;;;;;;7.13;5.40;;;16.10;99.90;;;;;;6185467;23;20028;-71
2021/06/12 06:53:58;;;;;;;7.35;5.38;;;16.10;99.90;;;;;;6185376;23;20116;-71
2021/06/12 06:56:24;;;;;;;10.60;5.43;;;16.10;99.90;;;;;;6185479;23;20395;-71
2021/06/12 06:58:50;;;;;;;6.65;4.80;;;16.10;99.90;;;;;;6185262;23;20033;-71
2021/06/12 07:01:16;;;;;;;7.50;4.55;;;16.20;99.90;;;;;;6185267;23;20088;-71
2021/06/12 07:03:41;;;;;;;7.85;4.50;;;16.10;99.90;;;;;;6185658;23;20384;-71
2021/06/12 07:06:07;;;;;;;7.53;4.70;;;16.20;99.90;;;;;;6185169;23;20492;-71
2021/06/12 07:08:33;;;;;;;8.15;4.28;;;16.20;99.90;;;;;;6184852;23;20076;-71
2021/06/12 07:10:59;;;;;;;5.88;4.47;;;16.20;99.90;;;;;;6185080;23;20012;-71
2021/06/12 07:13:25;;;;;;;7.13;4.28;;;16.20;99.90;;;;;;6185390;23;20369;-70
2021/06/12 07:15:51;;;;;;;4.85;4.18;;;16.20;99.90;;;;;;6185092;23;20004;-71
2021/06/12 07:18:17;;;;;;;5.47;4.40;;;16.20;99.90;;;;;;6185320;23;20005;-71
2021/06/12 07:20:46;;;;;;;8.85;4.22;;;16.20;99.90;;;;;;6158749;23;20009;-71
2021/06/12 07:23:15;;;;;;;7.25;3.97;;;16.30;99.90;;;;;;6185669;23;20336;-71
2021/06/12 07:25:41;;;;;;;9.13;4.72;;;16.30;99.90;;;;;;6185226;23;20008;-71
2021/06/12 07:28:07;;;;;;;8.45;4.80;;;16.30;99.90;;;;;;6184926;23;20004;-71
2021/06/12 07:30:38;;;;;;;10.70;4.60;;;16.40;99.90;;;;;;6185232;23;20005;-71
2021/06/12 07:33:09;;;;;;;9.43;4.50;;;16.30;99.90;;;;;;6185333;23;20070;-71
2021/06/12 07:35:35;;;;;;;9.10;4.72;;;16.40;99.90;;;;;;6185225;23;20035;-71
2021/06/12 07:38:02;;;;;;;10.10;4.80;;;16.40;99.90;;;;;;6184834;23;20059;-71
2021/06/12 07:40:28;;;;;;;6.55;4.22;;;16.40;99.90;;;;;;6184990;23;20425;-71
2021/06/12 07:42:54;;;;;;;12.93;5.45;;;16.40;99.90;;;;;;6184814;23;20005;-71
2021/06/12 07:45:20;;;;;;;8.18;4.50;;;16.40;99.90;;;;;;6158423;23;20017;-71
2021/06/12 07:47:47;;;;;;;8.52;4.60;;;16.40;99.90;;;;;;6185028;23;20387;-71
2021/06/12 07:50:14;;;;;;;7.97;4.78;;;16.40;99.90;;;;;;6185068;23;20079;-71
2021/06/12 07:52:40;;;;;;;10.85;5.90;;;16.40;99.90;;;;;;6184897;23;20007;-71
2021/06/12 07:55:06;;;;;;;7.22;4.65;;;16.40;99.90;;;;;;6185019;23;20080;-71
2021/06/12 07:57:32;;;;;;;10.82;5.47;;;16.40;99.90;;;;;;6185127;23;20013;-71
2021/06/12 07:59:58;;;;;;;10.50;5.10;;;16.40;99.90;;;;;;6184735;23;20552;-71
2021/06/12 08:02:25;;;;;;;7.68;4.75;;;16.40;99.90;;;;;;6184707;23;20012;-71
2021/06/12 08:04:51;;;;;;;6.05;4.90;;;16.50;99.90;;;;;;6184952;23;20021;-71
2021/06/12 08:07:17;;;;;;;5.43;4.75;;;16.50;99.90;;;;;;6184733;23;20005;-71
2021/06/12 08:09:43;;;;;;;5.18;4.63;;;16.50;99.90;;;;;;6184799;23;20005;-71
2021/06/12 08:12:09;;;;;;;8.95;4.28;;;16.60;99.90;;;;;;6184449;23;20017;-71
2021/06/12 08:14:35;;;;;;;6.35;4.30;;;16.60;99.90;;;;;;6185061;23;20429;-71
2021/06/12 08:17:01;;;;;;;6.28;4.53;;;16.60;99.90;;;;;;6184403;23;20012;-71
2021/06/12 08:19:27;;;;;;;7.43;4.95;;;16.60;99.90;;;;;;6184729;23;20005;-71
2021/06/12 08:21:52;;;;;;;6.47;4.70;;;16.70;99.90;;;;;;6184214;23;20019;-71
2021/06/12 08:24:18;;;;;;;6.43;4.35;;;16.70;99.90;;;;;;6184625;23;20029;-71
2021/06/12 08:26:44;;;;;;;5.78;4.50;;;16.70;99.90;;;;;;6184571;23;20009;-71
2021/06/12 08:29:10;;;;;;;6.40;4.70;;;16.80;99.90;;;;;;6184862;23;20005;-71
2021/06/12 08:31:36;;;;;;;5.43;4.65;;;16.80;99.90;;;;;;6184607;23;20001;-71
2021/06/12 08:34:03;;;;;;;6.75;4.75;;;16.80;99.90;;;;;;6184805;23;20302;-71
2021/06/12 08:36:29;;;;;;;5.68;4.63;;;16.80;99.90;;;;;;6184599;23;20329;-71
2021/06/12 08:38:56;;;;;;;9.55;5.18;;;16.80;99.90;;;;;;6184322;23;20001;-71
2021/06/12 08:41:22;;;;;;;5.45;4.40;;;16.80;99.90;;;;;;6157961;23;20013;-71
2021/06/12 08:43:48;;;;;;;5.03;4.15;;;16.90;99.90;;;;;;6184435;23;19997;-71
2021/06/12 08:46:14;;;;;;;5.82;3.40;;;16.90;99.90;;;;;;6183946;23;20117;-71
2021/06/12 08:48:41;;;;;;;5.07;4.13;;;17.00;99.90;;;;;;6184564;23;20314;-71
2021/06/12 08:51:07;;;;;;;4.53;3.45;;;17.00;99.90;;;;;;6184063;23;20044;-71
2021/06/12 08:53:33;;;;;;;4.63;3.38;;;17.00;99.90;;;;;;6184664;23;20009;-71
2021/06/12 08:55:59;;;;;;;4.50;3.38;;;17.00;99.90;;;;;;6184119;23;20401;-71
2021/06/12 08:58:25;;;;;;;5.63;3.63;;;17.00;99.90;;;;;;6184249;23;20032;-71
2021/06/12 09:00:52;;;;;;;4.32;3.55;;;17.00;99.90;;;;;;6184138;23;20572;-71
2021/06/12 09:03:22;;;;;;;6.35;3.10;;;17.00;99.90;;;;;;6184183;23;20445;-71
2021/06/12 09:06:00;;;;;;;4.75;3.85;;;17.00;99.90;;;;;;6184377;23;20005;-71
2021/06/12 09:08:30;;;;;;;5.30;3.17;;;17.00;99.90;;;;;;6184260;23;20329;-71
2021/06/12 09:11:08;;;;;;;3.28;2.92;;;17.00;99.90;;;;;;6184361;23;20332;-71
2021/06/12 09:13:49;;;;;;;5.00;3.22;;;17.00;99.90;;;;;;6184578;23;20005;-71
2021/06/12 09:16:22;;;;;;;3.83;2.80;;;16.90;99.90;;;;;;6184045;23;20032;-71
2021/06/12 09:18:49;;;;;;;4.35;2.83;;;17.00;99.90;;;;;;6184210;23;20001;-71
2021/06/12 09:21:30;;;;;;;3.38;2.97;;;17.00;99.90;;;;;;6183805;23;20011;-71
2021/06/12 09:23:58;;;;;;;3.35;3.05;;;16.90;99.90;;;;;;6157639;23;20001;-71
2021/06/12 09:26:47;;;;;;;5.32;3.05;;;17.00;99.90;;;;;;6184122;23;20080;-71
2021/06/12 09:29:18;;;;;;;3.28;2.55;;;17.00;99.90;;;;;;6184054;23;20072;-71
2021/06/12 09:31:46;;;;;;;3.83;2.70;;;17.00;99.90;;;;;;6184114;23;20009;-71
2021/06/12 09:34:15;;;;;;;3.15;1.70;;;17.00;99.90;;;;;;6183931;23;20504;-71
2021/06/12 09:36:42;;;;;;;1.33;0.90;;;17.00;99.90;;;;;;6184280;23;20314;-71
2021/06/12 09:39:08;;;;;;;2.92;1.00;;;16.90;99.90;;;;;;6183894;23;20206;-71
2021/06/12 09:41:34;;;;;;;0.95;0.52;;;16.70;99.90;;;;;;6184282;23;20009;-71
2021/06/12 09:44:00;;;;;;;0.65;0.57;;;16.60;99.90;;;;;;6183800;23;20064;-71
2021/06/12 09:46:35;;;;;;;0.82;0.40;;;16.50;99.90;;;;;;6183869;23;20039;-71
2021/06/12 09:49:03;;;;;;;0.57;0.50;;;16.50;99.90;;;;;;6183825;23;20005;-71
2021/06/12 09:51:29;;;;;;;2.80;0.90;;;16.40;99.90;;;;;;6183927;23;20293;-71
2021/06/12 09:53:58;;;;;;;0.82;0.40;;;16.40;99.90;;;;;;6183769;23;20556;-71
2021/06/12 09:56:27;;;;;;;2.45;0.52;;;16.40;99.90;;;;;;6184079;23;20045;-71
2021/06/12 09:58:55;;;;;;;2.72;0.40;;;16.40;99.90;;;;;;6184070;23;20001;-71
2021/06/12 10:01:24;;;;;;;1.77;0.40;;;16.40;99.90;;;;;;6183826;23;20349;-71
2021/06/12 10:04:11;;;;;;;0.55;0.55;;;16.30;99.90;;;;;;6183977;23;20001;-71
2021/06/12 10:06:37;;;;;;;2.20;0.60;;;16.30;99.90;;;;;;6157563;23;20016;-71
2021/06/12 10:09:05;;;;;;;1.35;0.40;;;16.30;99.90;;;;;;6183700;23;20001;-71
2021/06/12 10:11:32;;;;;;;0.30;0.30;;;16.40;99.90;;;;;;6183755;23;20468;-71
2021/06/12 10:13:59;;;;;;;2.58;0.40;;;16.40;99.90;;;;;;6183775;23;20005;-71
2021/06/12 10:16:26;;;;;;;0.73;0.40;;;16.40;99.90;;;;;;6184016;23;20015;-71
2021/06/12 10:18:54;;;;;;;2.15;0.40;;;16.40;99.90;;;;;;6157302;23;20005;-71
2021/06/12 10:21:20;;;;;;;5.18;0.40;;;16.50;99.90;;;;;;6183660;23;20044;-71
2021/06/12 10:23:48;;;;;;;1.65;0.50;;;16.50;99.90;;;;;;6183793;23;20306;-71
2021/06/12 10:26:19;;;;;;;1.90;0.30;;;16.50;99.90;;;;;;6157616;23;20024;-71
2021/06/12 10:28:45;;;;;;;0.30;0.20;;;16.50;99.90;;;;;;6184247;23;20299;-71
2021/06/12 10:31:15;;;;;;;1.67;0.32;;;16.60;99.90;;;;;;6183594;23;20005;-71
2021/06/12 10:33:43;;;;;;;0.68;0.30;;;16.60;99.90;;;;;;6183916;23;20083;-71
2021/06/12 10:36:31;;;;;;;2.60;0.38;;;16.60;99.90;;;;;;6183681;23;20016;-71
2021/06/12 10:38:57;;;;;;;0.50;0.30;;;16.70;99.90;;;;;;6183634;23;20008;-71
2021/06/12 10:41:34;;;;;;;1.75;0.30;;;16.70;99.90;;;;;;6183747;23;20009;-71
2021/06/12 10:44:03;;;;;;;0.75;0.22;;;16.70;99.90;;;;;;6185240;23;20036;-71
2021/06/12 10:46:34;;;;;;;0.30;0.30;;;16.70;99.90;;;;;;6185172;23;20041;-71
2021/06/12 10:49:04;;;;;;;1.10;0.30;;;16.70;99.90;;;;;;6185260;23;20008;-71
2021/06/12 10:51:33;;;;;;;0.82;0.30;;;16.70;99.90;;;;;;6185408;23;20008;-70
2021/06/12 10:54:21;;;;;;;0.83;0.40;;;16.70;99.90;;;;;;6185263;23;20441;-71
2021/06/12 10:57:11;;;;;;;0.43;0.17;;;16.70;99.90;;;;;;6185370;23;20233;-71
2021/06/12 10:59:37;;;;;;;4.13;0.50;;;16.70;99.90;;;;;;6165650;23;20013;-71
2021/06/12 11:02:29;;;;;;;0.32;0.32;;;16.80;99.90;;;;;;6185083;23;20035;-71
2021/06/12 11:05:05;;;;;;;1.33;0.38;;;16.80;99.90;;;;;;6184496;23;20028;-71
2021/06/12 11:07:33;;;;;;;0.60;0.20;;;16.90;99.90;;;;;;6185285;23;20449;-71
2021/06/12 11:10:15;;;;;;;0.32;0.20;;;16.90;99.90;;;;;;6185288;23;19997;-71
2021/06/12 11:12:47;;;;;;;0.95;0.30;;;16.90;99.90;;;;;;6185341;23;20001;-71
2021/06/12 11:15:22;;;;;;;2.05;0.47;;;16.90;99.90;;;;;;6185161;23;20440;-71
2021/06/12 11:18:17;;;;;;;0.57;0.32;;;16.90;99.90;;;;;;6185195;23;20000;-71
2021/06/12 11:21:07;;;;;;;0.10;0.10;;;16.90;99.90;;;;;;6185189;23;20032;-71
2021/06/12 11:23:43;;;;;;;1.08;0.20;;;17.00;99.90;;;;;;6166039;23;20009;-70
2021/06/12 11:26:11;;;;;;;0.88;0.20;;;17.00;99.90;;;;;;6185141;23;20009;-71
2021/06/12 11:28:39;;;;;;;0.30;0.30;;;17.00;99.90;;;;;;6185140;23;20005;-71
2021/06/12 11:31:24;;;;;;;0.63;0.40;;;17.10;99.90;;;;;;6158624;23;20005;-71
2021/06/12 11:34:13;;;;;;;0.30;0.30;;;17.20;99.90;;;;;;6185073;23;20008;-71
2021/06/12 11:36:39;;;;;;;0.98;0.30;;;17.20;99.90;;;;;;6185463;23;20002;-71
2021/06/12 11:39:05;;;;;;;0.35;0.20;;;17.20;99.90;;;;;;6184930;23;20008;-71
2021/06/12 11:41:31;;;;;;;0.30;0.30;;;17.20;99.90;;;;;;6158674;23;20019;-71
2021/06/12 11:43:59;;;;;;;0.85;0.40;;;17.20;99.90;;;;;;6185540;23;20001;-71
2021/06/12 11:46:50;;;;;;;0.52;0.40;;;17.30;99.90;;;;;;6184880;23;20353;-71
2021/06/12 11:49:16;;;;;;;1.63;0.38;;;17.30;99.90;;;;;;6184723;23;20377;-71
2021/06/12 11:51:44;;;;;;;0.93;0.40;;;17.30;99.90;;;;;;6184814;23;20005;-71
2021/06/12 11:54:13;;;;;;;0.73;0.30;;;17.20;99.90;;;;;;6157984;23;20001;-71
2021/06/12 11:56:44;;;;;;;1.00;0.43;;;17.20;99.90;;;;;;6184982;23;20194;-71
2021/06/12 11:59:12;;;;;;;0.80;0.30;;;17.20;99.90;;;;;;6184496;23;20008;-70
2021/06/12 12:01:57;;;;;;;0.43;0.30;;;17.20;99.90;;;;;;6184754;23;20009;-71
2021/06/12 12:04:24;;;;;;;2.05;0.30;;;17.00;99.90;;;;;;6184482;23;20080;-71
2021/06/12 12:06:55;;;;;;;2.47;0.28;;;17.00;99.90;;;;;;6184653;23;20008;-70
2021/06/12 12:09:30;;;;;;;0.25;0.20;;;17.00;99.90;;;;;;6184736;23;20012;-71
2021/06/12 12:12:05;;;;;;;0.75;0.40;;;16.90;99.90;;;;;;6184580;23;20008;-71
2021/06/12 12:14:37;;;;;;;0.50;0.30;;;17.00;99.90;;;;;;6184752;23;20438;-71
2021/06/12 12:17:07;;;;;;;7.82;0.57;;;16.90;99.90;;;;;;6157973;23;20012;-71
2021/06/12 12:19:33;;;;;;;;;;;16.90;99.90;;;;;;6185224;23;20001;-71
2021/06/12 12:22:01;;;;;;;2.50;0.40;;;17.00;99.90;;;;;;6184802;23;20275;-71
2021/06/12 12:24:32;;;;;;;1.65;0.30;;;17.00;99.90;;;;;;6184627;23;20437;-71
2021/06/12 12:27:09;;;;;;;2.22;0.40;;;17.10;99.90;;;;;;6184530;23;20008;-71
2021/06/12 12:29:39;;;;;;;0.68;0.30;;;17.10;99.90;;;;;;6184628;23;20479;-71
2021/06/12 12:32:07;;;;;;;1.60;0.28;;;17.10;99.90;;;;;;6184334;23;20005;-71
2021/06/12 12:34:39;;;;;;;2.30;0.50;;;17.20;99.90;;;;;;6184606;23;20007;-71
2021/06/12 12:37:08;;;;;;;0.93;0.45;;;17.20;99.90;;;;;;6184382;23;20330;-71
2021/06/12 12:39:46;;;;;;;0.40;0.40;;;17.30;99.90;;;;;;6184519;23;20013;-71
2021/06/12 12:42:24;;;;;;;0.40;0.40;;;17.30;99.90;;;;;;6184147;23;20019;-71
2021/06/12 12:44:55;;;;;;;0.32;0.30;;;17.40;99.90;;;;;;6184309;23;20353;-71
2021/06/12 12:47:25;;;;;;;0.77;0.32;;;17.40;99.90;;;;;;6184194;23;20005;-71
2021/06/12 12:49:51;;;;;;;0.60;0.35;;;17.40;99.90;;;;;;6184716;23;20124;-71
2021/06/12 12:52:25;;;;;;;1.02;0.40;;;17.40;99.90;;;;;;6184131;23;20075;-71
2021/06/12 12:54:58;;;;;;;0.55;0.30;;;17.40;99.90;;;;;;6184413;23;20425;-71
2021/06/12 12:57:24;;;;;;;0.40;0.40;;;17.50;99.90;;;;;;6184140;23;20007;-71
2021/06/12 12:59:50;;;;;;;2.22;0.40;;;17.50;99.90;;;;;;6184372;23;20055;-71
2021/06/12 13:02:16;;;;;;;0.82;0.50;;;17.60;99.90;;;;;;6184391;23;20012;-71
2021/06/12 13:04:46;;;;;;;0.47;0.30;;;17.60;99.90;;;;;;6184186;23;20060;-71
2021/06/12 13:07:22;;;;;;;0.80;0.50;;;17.60;99.90;;;;;;6183819;23;20011;-71
2021/06/12 13:10:05;;;;;;;0.47;0.43;;;17.60;99.90;;;;;;6184203;23;20016;-71
2021/06/12 13:12:31;;;;;;;1.95;0.50;;;17.60;99.90;;;;;;6184130;23;20020;-71
2021/06/12 13:15:10;;;;;;;1.13;0.47;;;17.60;99.90;;;;;;6184074;23;20004;-71
2021/06/12 13:17:37;;;;;;;0.70;0.40;;;17.60;99.90;;;;;;6184010;23;20079;-71
2021/06/12 13:20:08;;;;;;;1.42;0.50;;;17.60;99.90;;;;;;6184185;23;20024;-71
2021/06/12 13:22:39;;;;;;;1.27;0.50;;;17.60;99.90;;;;;;6184002;23;20019;-71
2021/06/12 13:25:15;;;;;;;0.60;0.50;;;17.70;99.90;;;;;;6184112;23;20369;-71
2021/06/12 13:27:52;;;;;;;3.20;0.45;;;17.70;99.90;;;;;;6184098;23;20005;-71